createdAt,value
2018-08-25T00:01:15.482Z,100.00
2018-08-25T00:03:44.509Z,100.00
2018-08-25T00:06:13.632Z,100.00
2018-08-25T00:08:42.606Z,100.00
2018-08-25T00:11:11.886Z,100.00
2018-08-25T00:13:40.880Z,100.00
2018-08-25T00:16:09.877Z,100.00
2018-08-25T00:18:38.815Z,100.00
2018-08-25T00:21:07.825Z,100.00
2018-08-25T00:23:36.746Z,100.00
2018-08-25T00:26:05.756Z,100.00
2018-08-25T00:28:34.806Z,100.00
2018-08-25T00:31:08.944Z,100.00
2018-08-25T00:33:37.959Z,100.00
2018-08-25T00:36:06.928Z,100.00
2018-08-25T00:38:35.923Z,100.00
2018-08-25T00:41:05.021Z,99.13
2018-08-25T00:43:34.013Z,96.56
2018-08-25T00:46:03.036Z,99.67
2018-08-25T00:48:32.114Z,100.00
2018-08-25T00:51:01.386Z,100.00
2018-08-25T00:53:30.431Z,100.00
2018-08-25T00:55:59.876Z,100.00
2018-08-25T00:58:28.865Z,100.00
2018-08-25T01:00:57.856Z,100.00
2018-08-25T01:03:27.021Z,100.00
2018-08-25T01:05:56.091Z,100.00
2018-08-25T01:08:25.270Z,100.00
2018-08-25T01:10:54.371Z,100.00
2018-08-25T01:13:23.432Z,100.00
2018-08-25T01:15:52.409Z,100.00
2018-08-25T01:18:21.438Z,100.00
2018-08-25T01:20:50.951Z,100.00
2018-08-25T01:23:19.996Z,100.00
2018-08-25T01:25:49.019Z,100.00
2018-08-25T01:28:18.169Z,100.00
2018-08-25T01:30:47.159Z,100.00
2018-08-25T01:33:16.244Z,100.00
2018-08-25T01:35:45.275Z,100.00
2018-08-25T01:38:14.356Z,100.00
2018-08-25T01:40:43.377Z,100.00
2018-08-25T01:43:12.855Z,100.00
2018-08-25T01:45:41.866Z,100.00
2018-08-25T01:48:10.894Z,100.00
2018-08-25T01:50:40.012Z,100.00
2018-08-25T01:53:09.109Z,100.00
2018-08-25T01:55:38.668Z,100.00
2018-08-25T01:58:08.541Z,100.00
2018-08-25T02:00:37.512Z,100.00
2018-08-25T02:03:06.675Z,100.00
2018-08-25T02:05:35.646Z,100.00
2018-08-25T02:08:05.999Z,100.00
2018-08-25T02:10:35.300Z,100.00
2018-08-25T02:13:04.429Z,100.00
2018-08-25T02:15:33.476Z,100.00
2018-08-25T02:18:02.835Z,100.00
2018-08-25T02:20:31.922Z,100.00
2018-08-25T02:23:01.370Z,100.00
2018-08-25T02:25:30.424Z,100.00
2018-08-25T02:28:00.036Z,100.00
2018-08-25T02:30:29.076Z,100.00
2018-08-25T02:33:04.867Z,100.00
2018-08-25T02:35:33.899Z,100.00
2018-08-25T02:38:02.858Z,100.00
2018-08-25T02:40:31.988Z,100.00
2018-08-25T02:43:02.068Z,100.00
2018-08-25T02:45:31.047Z,100.00
2018-08-25T02:48:00.396Z,100.00
2018-08-25T02:50:29.392Z,100.00
2018-08-25T02:52:58.353Z,100.00
2018-08-25T02:55:27.411Z,100.00
2018-08-25T02:57:56.452Z,100.00
2018-08-25T03:00:26.967Z,100.00
2018-08-25T03:02:56.421Z,100.00
2018-08-25T03:05:25.664Z,100.00
2018-08-25T03:07:54.759Z,100.00
2018-08-25T03:10:23.888Z,100.00
2018-08-25T03:12:53.035Z,100.00
2018-08-25T03:15:22.389Z,100.00
2018-08-25T03:17:51.387Z,100.00
2018-08-25T03:20:23.355Z,100.00
2018-08-25T03:22:52.459Z,100.00
2018-08-25T03:25:22.208Z,100.00
2018-08-25T03:27:51.284Z,100.00
2018-08-25T03:30:23.804Z,100.00
2018-08-25T03:32:52.860Z,100.00
2018-08-25T03:35:22.663Z,100.00
2018-08-25T03:37:51.720Z,100.00
2018-08-25T03:40:23.635Z,100.00
2018-08-25T03:42:52.683Z,100.00
2018-08-25T03:45:21.714Z,100.00
2018-08-25T03:47:50.700Z,100.00
2018-08-25T03:50:19.770Z,100.00
2018-08-25T03:52:48.754Z,100.00
2018-08-25T03:55:21.323Z,100.00
2018-08-25T03:57:50.379Z,100.00
2018-08-25T04:00:19.366Z,100.00
2018-08-25T04:02:48.427Z,100.00
2018-08-25T04:05:19.722Z,100.00
2018-08-25T04:07:48.757Z,100.00
2018-08-25T04:10:19.432Z,100.00
2018-08-25T04:12:48.466Z,100.00
2018-08-25T04:15:18.891Z,100.00
2018-08-25T04:17:47.853Z,100.00
2018-08-25T04:20:18.657Z,100.00
2018-08-25T04:22:47.611Z,100.00
2018-08-25T04:25:18.149Z,100.00
2018-08-25T04:27:47.157Z,100.00
2018-08-25T04:30:18.039Z,100.00
2018-08-25T04:32:47.104Z,100.00
2018-08-25T04:35:17.863Z,100.00
2018-08-25T04:37:47.113Z,100.00
2018-08-25T04:40:16.137Z,100.00
2018-08-25T04:42:45.127Z,100.00
2018-08-25T04:45:16.309Z,100.00
2018-08-25T04:47:45.331Z,100.00
2018-08-25T04:50:14.443Z,100.00
2018-08-25T04:52:43.435Z,100.00
2018-08-25T04:55:14.251Z,100.00
2018-08-25T04:57:43.335Z,100.00
2018-08-25T05:00:12.609Z,100.00
2018-08-25T05:02:41.631Z,100.00
2018-08-25T05:05:11.101Z,100.00
2018-08-25T05:07:40.144Z,100.00
2018-08-25T05:10:09.183Z,100.00
2018-08-25T05:12:38.260Z,100.00
2018-08-25T05:15:07.970Z,100.00
2018-08-25T05:17:37.467Z,100.00
2018-08-25T05:20:07.950Z,100.00
2018-08-25T05:22:37.722Z,100.00
2018-08-25T05:25:08.328Z,100.00
2018-08-25T05:27:38.419Z,100.00
2018-08-25T05:30:08.177Z,100.00
2018-08-25T05:32:38.307Z,100.00
2018-08-25T05:35:07.736Z,100.00
2018-08-25T05:37:36.799Z,100.00
2018-08-25T05:40:05.862Z,100.00
2018-08-25T05:42:34.939Z,100.00
2018-08-25T05:45:03.959Z,100.00
2018-08-25T05:47:33.731Z,100.00
2018-08-25T05:50:03.544Z,100.00
2018-08-25T05:52:33.220Z,100.00
2018-08-25T05:55:02.658Z,100.00
2018-08-25T05:57:31.963Z,100.00
2018-08-25T06:00:01.921Z,100.00
2018-08-25T06:02:33.087Z,100.00
2018-08-25T06:05:02.502Z,100.00
2018-08-25T06:07:31.524Z,100.00
2018-08-25T06:10:02.644Z,100.00
2018-08-25T06:12:31.663Z,100.00
2018-08-25T06:15:02.296Z,100.00
2018-08-25T06:17:31.876Z,100.00
2018-08-25T06:20:01.448Z,100.00
2018-08-25T06:22:31.972Z,100.00
2018-08-25T06:25:01.963Z,100.00
2018-08-25T06:27:31.510Z,100.00
2018-08-25T06:30:02.025Z,100.00
2018-08-25T06:32:31.715Z,100.00
2018-08-25T06:35:00.950Z,100.00
2018-08-25T06:37:29.899Z,100.00
2018-08-25T06:39:59.982Z,100.00
2018-08-25T06:42:28.944Z,100.00
2018-08-25T06:45:00.545Z,100.00
2018-08-25T06:47:31.297Z,100.00
2018-08-25T06:50:00.960Z,100.00
2018-08-25T06:52:29.977Z,100.00
2018-08-25T06:54:59.173Z,100.00
2018-08-25T06:57:28.201Z,100.00
2018-08-25T06:59:57.173Z,100.00
2018-08-25T07:02:26.181Z,100.00
2018-08-25T07:04:55.432Z,100.00
2018-08-25T07:07:24.441Z,100.00
2018-08-25T07:09:54.205Z,100.00
2018-08-25T07:12:23.306Z,100.00
2018-08-25T07:14:52.390Z,100.00
2018-08-25T07:17:21.951Z,98.13
2018-08-25T07:19:51.260Z,98.47
2018-08-25T07:22:20.375Z,95.86
2018-08-25T07:24:49.390Z,95.66
2018-08-25T07:27:18.422Z,95.83
2018-08-25T07:29:50.414Z,94.36
2018-08-25T07:32:19.439Z,93.81
2018-08-25T07:34:48.453Z,92.32
2018-08-25T07:37:18.042Z,89.44
2018-08-25T07:39:47.152Z,88.00
2018-08-25T07:42:16.285Z,85.00
2018-08-25T07:44:45.287Z,87.63
2018-08-25T07:47:14.673Z,86.87
2018-08-25T07:49:43.800Z,89.23
2018-08-25T07:52:12.859Z,86.46
2018-08-25T07:54:41.928Z,87.23
2018-08-25T07:57:11.432Z,90.31
2018-08-25T07:59:40.564Z,89.92
2018-08-25T08:02:09.684Z,90.42
2018-08-25T08:04:38.735Z,89.07
2018-08-25T08:07:07.872Z,88.67
2018-08-25T08:09:36.903Z,88.17
2018-08-25T08:12:05.965Z,86.12
2018-08-25T08:14:35.122Z,84.33
2018-08-25T08:17:04.287Z,85.81
2018-08-25T08:19:33.292Z,83.26
2018-08-25T08:22:02.856Z,82.77
2018-08-25T08:24:31.911Z,82.84
2018-08-25T08:27:01.416Z,82.72
2018-08-25T08:29:30.396Z,81.36
2018-08-25T08:31:59.812Z,76.74
2018-08-25T08:34:30.831Z,75.25
2018-08-25T08:37:00.327Z,75.89
2018-08-25T08:39:29.319Z,80.15
2018-08-25T08:41:58.347Z,81.42
2018-08-25T08:44:27.472Z,83.25
2018-08-25T08:46:56.424Z,80.07
2018-08-25T08:49:25.498Z,78.37
2018-08-25T08:51:54.529Z,77.70
2018-08-25T08:54:23.531Z,76.09
2018-08-25T08:56:52.572Z,72.95
2018-08-25T08:59:21.636Z,67.06
2018-08-25T09:01:50.681Z,67.56
2018-08-25T09:04:19.751Z,67.77
2018-08-25T09:06:53.660Z,64.47
2018-08-25T09:09:22.763Z,63.16
2018-08-25T09:11:51.908Z,61.21
2018-08-25T09:14:20.884Z,60.14
2018-08-25T09:16:49.923Z,61.94
2018-08-25T09:19:18.958Z,65.25
2018-08-25T09:21:47.971Z,61.71
2018-08-25T09:24:17.143Z,63.21
2018-08-25T09:26:46.246Z,61.90
2018-08-25T09:29:15.265Z,61.87
2018-08-25T09:31:44.226Z,64.21
2018-08-25T09:34:13.199Z,63.33
2018-08-25T09:36:42.276Z,67.26
2018-08-25T09:39:11.659Z,63.26
2018-08-25T09:41:41.120Z,64.57
2018-08-25T09:44:10.200Z,68.97
2018-08-25T09:46:39.177Z,68.25
2018-08-25T09:49:08.152Z,64.96
2018-08-25T09:51:37.134Z,62.79
2018-08-25T09:54:06.138Z,64.16
2018-08-25T09:56:35.107Z,65.08
2018-08-25T09:59:04.248Z,57.24
2018-08-25T10:01:37.305Z,59.76
2018-08-25T10:04:06.300Z,59.81
2018-08-25T10:06:35.269Z,62.02
2018-08-25T10:09:05.200Z,64.08
2018-08-25T10:11:34.627Z,59.18
2018-08-25T10:14:04.052Z,60.68
2018-08-25T10:16:33.068Z,58.98
2018-08-25T10:19:02.831Z,59.52
2018-08-25T10:21:31.835Z,59.36
2018-08-25T10:24:01.389Z,58.03
2018-08-25T10:26:30.406Z,58.68
2018-08-25T10:28:59.935Z,56.28
2018-08-25T10:31:28.953Z,57.22
2018-08-25T10:33:58.016Z,54.92
2018-08-25T10:36:27.021Z,58.05
2018-08-25T10:38:56.036Z,55.85
2018-08-25T10:41:25.069Z,55.33
2018-08-25T10:43:53.988Z,54.34
2018-08-25T10:46:22.928Z,51.87
2018-08-25T10:48:51.963Z,50.73
2018-08-25T10:51:20.979Z,50.25
2018-08-25T10:53:50.331Z,52.37
2018-08-25T10:56:19.352Z,51.07
2018-08-25T10:58:48.382Z,49.56
2018-08-25T11:01:17.626Z,52.08
2018-08-25T11:03:49.538Z,55.25
2018-08-25T11:06:18.579Z,56.65
2018-08-25T11:08:47.694Z,56.37
2018-08-25T11:11:16.745Z,56.37
2018-08-25T11:13:45.782Z,56.46
2018-08-25T11:16:14.828Z,56.59
2018-08-25T11:18:43.804Z,57.54
2018-08-25T11:21:37.695Z,59.13
2018-08-25T11:34:11.929Z,57.37
2018-08-25T11:36:40.982Z,59.16
2018-08-25T11:39:11.519Z,58.42
2018-08-25T11:41:40.983Z,59.63
2018-08-25T11:44:10.929Z,59.77
2018-08-25T11:46:39.929Z,59.05
2018-08-25T11:49:09.638Z,56.52
2018-08-25T11:51:38.605Z,57.75
2018-08-25T11:54:07.642Z,55.29
2018-08-25T11:56:36.653Z,55.17
2018-08-25T11:59:05.624Z,57.37
2018-08-25T12:01:34.641Z,58.82
2018-08-25T12:04:08.735Z,57.45
2018-08-25T12:06:42.451Z,57.02
2018-08-25T12:09:20.198Z,54.66
2018-08-25T12:11:55.921Z,55.44
2018-08-25T12:14:32.006Z,55.65
2018-08-25T12:17:08.132Z,55.56
2018-08-25T12:19:43.254Z,52.96
2018-08-25T12:22:17.256Z,52.80
2018-08-25T12:24:51.742Z,53.55
2018-08-25T12:27:25.612Z,53.44
2018-08-25T12:29:56.837Z,53.30
2018-08-25T12:32:25.906Z,52.37
2018-08-25T12:34:54.955Z,52.13
2018-08-25T12:37:24.034Z,53.59
2018-08-25T12:39:52.981Z,54.55
2018-08-25T12:42:22.015Z,55.33
2018-08-25T12:44:51.028Z,53.61
2018-08-25T12:47:25.404Z,53.37
2018-08-25T12:49:55.913Z,51.51
2018-08-25T12:52:24.863Z,53.42
2018-08-25T12:54:53.875Z,55.46
2018-08-25T12:57:22.933Z,57.25
2018-08-25T12:59:51.910Z,57.33
2018-08-25T13:02:26.041Z,55.79
2018-08-25T13:05:00.214Z,55.40
2018-08-25T13:07:33.828Z,55.32
2018-08-25T13:10:08.031Z,56.59
2018-08-25T13:12:42.353Z,56.40
2018-08-25T13:15:21.195Z,56.75
2018-08-25T13:17:55.313Z,56.58
2018-08-25T13:20:29.335Z,53.62
2018-08-25T13:22:58.665Z,53.32
2018-08-25T13:25:27.573Z,54.42
2018-08-25T13:27:56.531Z,54.26
2018-08-25T13:30:25.499Z,56.03
2018-08-25T13:32:54.514Z,57.32
2018-08-25T13:35:23.485Z,57.75
2018-08-25T13:37:52.444Z,57.32
2018-08-25T13:40:26.208Z,58.25
2018-08-25T13:42:55.276Z,59.28
2018-08-25T13:45:24.234Z,60.21
2018-08-25T13:47:53.497Z,61.22
2018-08-25T13:56:20.983Z,58.76
2018-08-25T13:58:49.965Z,59.06
2018-08-25T14:01:50.864Z,58.60
2018-08-25T14:10:13.760Z,58.39
2018-08-25T14:12:42.752Z,58.32
2018-08-25T14:15:15.984Z,58.91
2018-08-25T14:17:45.135Z,57.18
2018-08-25T14:20:14.846Z,55.33
2018-08-25T14:22:47.457Z,56.66
2018-08-25T14:25:19.329Z,54.63
2018-08-25T14:27:48.305Z,53.99
2018-08-25T14:30:20.611Z,52.86
2018-08-25T14:32:49.910Z,52.70
2018-08-25T14:35:22.005Z,53.59
2018-08-25T14:37:51.061Z,53.80
2018-08-25T14:40:22.297Z,53.69
2018-08-25T14:42:52.956Z,53.97
2018-08-25T14:45:22.287Z,53.21
2018-08-25T14:47:51.562Z,53.19
2018-08-25T14:50:22.986Z,53.31
2018-08-25T14:52:52.094Z,53.13
2018-08-25T14:55:21.759Z,53.15
2018-08-25T14:57:50.792Z,52.94
2018-08-25T15:00:22.467Z,52.37
2018-08-25T15:02:51.785Z,52.41
2018-08-25T15:05:25.596Z,53.47
2018-08-25T15:07:54.797Z,53.85
2018-08-25T15:10:23.830Z,53.69
2018-08-25T15:12:55.586Z,52.90
2018-08-25T15:15:27.687Z,54.20
2018-08-25T15:17:57.663Z,54.79
2018-08-25T15:20:26.834Z,54.83
2018-08-25T15:22:56.085Z,53.12
2018-08-25T15:25:33.307Z,54.06
2018-08-25T15:28:02.262Z,54.30
2018-08-25T15:30:32.680Z,54.58
2018-08-25T15:33:03.064Z,54.36
2018-08-25T15:35:35.363Z,54.07
2018-08-25T15:38:04.463Z,53.42
2018-08-25T15:43:31.814Z,55.79
2018-08-25T15:46:00.828Z,54.75
2018-08-25T15:48:29.917Z,55.56
2018-08-25T15:50:59.005Z,56.12
2018-08-25T15:53:28.600Z,57.77
2018-08-25T15:55:57.616Z,57.32
2018-08-25T15:58:26.920Z,57.61
2018-08-25T16:00:55.905Z,58.64
2018-08-25T16:03:24.900Z,59.97
2018-08-25T16:05:53.939Z,60.89
2018-08-25T16:08:22.927Z,60.53
2018-08-25T16:10:51.868Z,60.79
2018-08-25T16:13:21.608Z,61.12
2018-08-25T16:15:50.560Z,60.80
2018-08-25T16:18:19.543Z,60.59
2018-08-25T16:20:48.613Z,60.58
2018-08-25T16:23:17.643Z,61.08
2018-08-25T16:25:46.602Z,61.64
2018-08-25T16:28:15.749Z,62.24
2018-08-25T16:30:44.871Z,62.02
2018-08-25T16:33:14.305Z,62.86
2018-08-25T16:35:43.419Z,62.22
2018-08-25T16:38:12.716Z,63.44
2018-08-25T16:40:41.822Z,63.87
2018-08-25T16:43:11.030Z,62.73
2018-08-25T16:45:40.071Z,63.67
2018-08-25T16:48:09.132Z,64.00
2018-08-25T16:50:38.179Z,63.93
2018-08-25T16:53:07.191Z,63.48
2018-08-25T16:55:36.377Z,64.36
2018-08-25T16:58:05.575Z,64.19
2018-08-25T17:00:34.760Z,64.60
2018-08-25T17:03:03.804Z,63.85
2018-08-25T17:05:32.951Z,64.63
2018-08-25T17:08:01.980Z,65.18
2018-08-25T17:10:31.194Z,64.73
2018-08-25T17:13:00.363Z,64.33
2018-08-25T17:15:29.947Z,64.29
2018-08-25T17:17:59.585Z,65.08
2018-08-25T17:20:28.709Z,64.84
2018-08-25T17:22:57.877Z,64.60
2018-08-25T17:25:28.713Z,64.35
2018-08-25T17:27:58.491Z,65.06
2018-08-25T17:30:27.716Z,64.95
2018-08-25T17:32:56.966Z,64.59
2018-08-25T17:38:19.039Z,66.14
2018-08-25T17:40:48.200Z,65.27
2018-08-25T17:43:19.406Z,66.12
2018-08-25T17:45:48.754Z,65.19
2018-08-25T17:48:17.803Z,65.69
2018-08-25T17:50:47.410Z,65.43
2018-08-25T17:53:16.726Z,65.94
2018-08-25T17:56:21.530Z,66.21
2018-08-25T17:58:54.141Z,66.61
2018-08-25T18:01:23.707Z,65.44
2018-08-25T18:03:53.281Z,66.16
2018-08-25T18:06:22.618Z,65.67
2018-08-25T18:08:51.707Z,65.03
2018-08-25T18:11:21.764Z,65.39
2018-08-25T18:13:50.811Z,65.46
2018-08-25T18:16:19.842Z,66.88
2018-08-25T18:18:48.885Z,67.69
2018-08-25T18:21:17.973Z,68.30
2018-08-25T18:23:47.272Z,68.53
2018-08-25T18:26:18.854Z,69.70
2018-08-25T18:28:48.205Z,69.63
2018-08-25T18:31:18.480Z,70.00
2018-08-25T18:33:47.639Z,69.90
2018-08-25T18:36:23.661Z,70.75
2018-08-25T18:39:00.168Z,70.85
2018-08-25T18:41:46.893Z,71.59
2018-08-25T18:47:42.090Z,71.64
2018-08-25T18:50:34.561Z,72.63
2018-08-25T18:53:26.527Z,72.75
2018-08-25T18:59:03.903Z,74.84
2018-08-25T19:01:37.091Z,74.86
2018-08-25T19:04:06.750Z,75.80
2018-08-25T19:06:36.187Z,76.43
2018-08-25T19:09:07.603Z,76.98
2018-08-25T19:11:37.041Z,76.54
2018-08-25T19:17:06.750Z,77.91
2018-08-25T19:19:36.819Z,77.22
2018-08-25T19:22:06.177Z,78.38
2018-08-25T19:24:35.700Z,77.82
2018-08-25T19:27:04.831Z,78.63
2018-08-25T19:29:34.112Z,78.52
2018-08-25T19:32:03.349Z,79.17
2018-08-25T19:34:32.559Z,79.84
2018-08-25T19:37:01.824Z,80.25
2018-08-25T19:39:31.192Z,80.37
2018-08-25T19:42:13.755Z,80.72
2018-08-25T19:44:43.146Z,81.20
2018-08-25T19:47:14.199Z,82.10
2018-08-25T19:49:43.429Z,82.90
2018-08-25T19:52:40.965Z,83.11
2018-08-25T19:55:15.793Z,83.82
2018-08-25T19:57:51.607Z,84.36
2018-08-25T20:00:22.139Z,83.20
2018-08-25T20:02:52.377Z,83.27
2018-08-25T20:05:22.187Z,84.76
2018-08-25T20:07:51.235Z,84.48
2018-08-25T20:10:20.794Z,83.65
2018-08-25T20:12:49.844Z,83.80
2018-08-25T20:15:25.235Z,84.01
2018-08-25T20:17:54.398Z,83.87
2018-08-25T20:20:23.942Z,85.27
2018-08-25T20:23:14.823Z,85.18
2018-08-25T20:25:44.174Z,85.99
2018-08-25T20:28:14.155Z,87.10
2018-08-25T20:30:44.309Z,87.13
2018-08-25T20:33:14.144Z,88.27
2018-08-25T20:35:45.836Z,87.93
2018-08-25T20:38:16.142Z,87.61
2018-08-25T20:40:46.328Z,88.81
2018-08-25T20:43:15.946Z,88.94
2018-08-25T20:45:45.430Z,88.12
2018-08-25T20:48:15.194Z,89.23
2018-08-25T20:50:44.476Z,89.00
2018-08-25T20:53:16.057Z,89.68
2018-08-25T20:55:45.397Z,90.93
2018-08-25T20:58:15.269Z,90.51
2018-08-25T21:00:45.401Z,90.91
2018-08-25T21:03:16.021Z,91.34
2018-08-25T21:05:45.551Z,91.81
2018-08-25T21:08:15.334Z,91.28
2018-08-25T21:10:44.640Z,91.00
2018-08-25T21:13:15.433Z,91.34
2018-08-25T21:15:44.824Z,92.22
2018-08-25T21:18:14.899Z,91.40
2018-08-25T21:20:44.512Z,92.29
2018-08-25T21:23:14.662Z,91.56
2018-08-25T21:25:44.606Z,91.73
2018-08-25T21:28:17.262Z,92.38
2018-08-25T21:30:47.392Z,92.32
2018-08-25T21:33:17.311Z,91.79
2018-08-25T21:36:04.047Z,92.08
2018-08-25T21:38:38.491Z,92.83
2018-08-25T21:41:19.574Z,92.48
2018-08-25T21:43:51.240Z,93.32
2018-08-25T21:46:20.461Z,92.52
2018-08-25T21:48:49.622Z,93.58
2018-08-25T21:51:18.831Z,93.38
2018-08-25T21:53:59.747Z,93.25
2018-08-25T21:56:29.282Z,93.64
2018-08-25T21:58:59.013Z,93.24
2018-08-25T22:01:33.665Z,92.45
2018-08-25T22:04:02.773Z,93.39
2018-08-25T22:06:31.754Z,93.14
2018-08-25T22:09:00.826Z,92.65
2018-08-25T22:11:30.124Z,92.76
2018-08-25T22:13:59.872Z,91.88
2018-08-25T22:16:29.163Z,92.03
2018-08-25T22:18:58.490Z,92.27
2018-08-25T22:21:31.622Z,92.48
2018-08-25T22:24:01.369Z,93.00
2018-08-25T22:26:30.531Z,92.03
2018-08-25T22:28:59.758Z,92.94
2018-08-25T22:31:29.148Z,92.89
2018-08-25T22:33:58.357Z,92.95
2018-08-25T22:36:27.584Z,93.43
2018-08-25T22:38:56.696Z,93.62
2018-08-25T22:41:40.401Z,93.78
2018-08-25T22:44:10.595Z,93.24
2018-08-25T22:46:43.713Z,94.34
2018-08-25T22:49:13.520Z,94.40
2018-08-25T22:51:42.740Z,93.65
2018-08-25T22:54:12.290Z,94.51
2018-08-25T22:56:41.436Z,94.37
2018-08-25T22:59:10.719Z,94.51
2018-08-25T23:01:39.894Z,94.62
2018-08-25T23:04:10.021Z,94.15
2018-08-25T23:06:39.415Z,94.11
2018-08-25T23:09:10.713Z,94.65
2018-08-25T23:11:40.218Z,95.12
2018-08-25T23:14:09.338Z,94.55
2018-08-25T23:16:38.461Z,95.28
2018-08-25T23:19:08.199Z,94.50
2018-08-25T23:21:37.507Z,95.35
2018-08-25T23:24:06.582Z,94.13
2018-08-25T23:26:35.597Z,94.66
2018-08-25T23:29:04.711Z,95.01
2018-08-25T23:31:33.800Z,95.49
2018-08-25T23:34:02.967Z,95.89
2018-08-25T23:36:32.363Z,96.23
2018-08-25T23:39:02.016Z,96.38
2018-08-25T23:41:31.104Z,97.36
2018-08-25T23:44:00.252Z,96.84
2018-08-25T23:46:29.505Z,97.33
2018-08-25T23:48:58.500Z,97.42
2018-08-25T23:51:27.674Z,96.79
2018-08-25T23:53:56.759Z,97.41
2018-08-25T23:57:02.104Z,96.98
2018-08-25T23:59:54.011Z,96.43
